LATI

Tirana International Mother Teresa Airport

Tirana, Albania
TAF LATI 151100Z 1512/1612 07010KT CAVOK TX20/1512Z TN01/1605Z TEMPO 1606/1612 BKN070
Issued Valid From Valid To
Nov-15 @ 11:00 UTC
(2 hours ago)
Nov-15 @ 12:00 UTC
(an hour ago)
Nov-16 @ 12:00 UTC
(in 23 hours)
Nov-15 @ 12:00 to Nov-16 @ 12:00
TAF LATI 151100Z 1512/1612 07010KT CAVOK TX20/1512Z TN01/1605Z
Wind Visibility Clouds
70° at 10 knots 10,000+ meters
  • No significant clouds
Temporary Nov-16 @ 06:00 to Nov-16 @ 12:00
TEMPO 1606/1612 BKN070
Clouds
  • Broken at 7,000' AGL
TAF LATI 151100Z 1512/1612 07010KT CAVOK TX20/1512Z TN01/1605Z TEMPO 1606/1612 BKN070
Issued Nov-15 @ 11:00 UTC
(2 hours ago)
Valid From Nov-15 @ 12:00 UTC
(an hour ago)
Valid To Nov-16 @ 12:00 UTC
(in 23 hours)
Nov-15 @ 12:00 - Nov-16 @ 12:00
Wind Visibility
70° at 10 knots 10,000+ meters
Clouds
  • No significant clouds
Temporary Nov-16 @ 06:00 - Nov-16 @ 12:00
Clouds
  • Broken at 7,000' AGL